sensor_id;sensor_type;location;lat;lon;timestamp;P1;durP1;ratioP1;P2;durP2;ratioP2
78772;SDS011;68111;44.728;11.290;2023-08-31T00:01:16;2.83;;;0.90;;
78772;SDS011;68111;44.728;11.290;2023-08-31T00:03:44;1.33;;;0.80;;
78772;SDS011;68111;44.728;11.290;2023-08-31T00:06:11;5.70;;;1.17;;
78772;SDS011;68111;44.728;11.290;2023-08-31T00:08:38;3.72;;;1.00;;
78772;SDS011;68111;44.728;11.290;2023-08-31T00:11:05;3.70;;;1.00;;
78772;SDS011;68111;44.728;11.290;2023-08-31T00:13:31;2.10;;;0.88;;
78772;SDS011;68111;44.728;11.290;2023-08-31T00:15:59;3.80;;;1.10;;
78772;SDS011;68111;44.728;11.290;2023-08-31T00:18:26;2.42;;;1.20;;
78772;SDS011;68111;44.728;11.290;2023-08-31T00:20:53;1.90;;;1.20;;
78772;SDS011;68111;44.728;11.290;2023-08-31T00:23:20;3.38;;;1.30;;
78772;SDS011;68111;44.728;11.290;2023-08-31T00:25:47;5.38;;;1.30;;
78772;SDS011;68111;44.728;11.290;2023-08-31T00:28:14;3.35;;;1.50;;
78772;SDS011;68111;44.728;11.290;2023-08-31T00:30:42;2.85;;;1.50;;
78772;SDS011;68111;44.728;11.290;2023-08-31T00:33:12;5.28;;;1.67;;
78772;SDS011;68111;44.728;11.290;2023-08-31T00:35:40;3.97;;;1.50;;
78772;SDS011;68111;44.728;11.290;2023-08-31T00:38:12;3.58;;;1.60;;
78772;SDS011;68111;44.728;11.290;2023-08-31T00:40:44;2.90;;;1.38;;
78772;SDS011;68111;44.728;11.290;2023-08-31T00:43:14;6.10;;;1.40;;
78772;SDS011;68111;44.728;11.290;2023-08-31T00:45:48;2.75;;;1.50;;
78772;SDS011;68111;44.728;11.290;2023-08-31T00:48:16;4.60;;;1.40;;
78772;SDS011;68111;44.728;11.290;2023-08-31T00:50:44;9.52;;;1.83;;
78772;SDS011;68111;44.728;11.290;2023-08-31T00:53:12;2.50;;;1.33;;
78772;SDS011;68111;44.728;11.290;2023-08-31T00:55:40;3.50;;;1.58;;
78772;SDS011;68111;44.728;11.290;2023-08-31T00:58:07;2.60;;;1.40;;
78772;SDS011;68111;44.728;11.290;2023-08-31T01:03:18;2.70;;;1.50;;
78772;SDS011;68111;44.728;11.290;2023-08-31T01:05:58;5.28;;;1.40;;
78772;SDS011;68111;44.728;11.290;2023-08-31T01:08:43;2.25;;;1.30;;
78772;SDS011;68111;44.728;11.290;2023-08-31T01:13:47;3.35;;;1.30;;
78772;SDS011;68111;44.728;11.290;2023-08-31T01:16:35;3.28;;;1.35;;
78772;SDS011;68111;44.728;11.290;2023-08-31T01:19:06;3.63;;;1.30;;
78772;SDS011;68111;44.728;11.290;2023-08-31T01:21:57;5.00;;;1.30;;
78772;SDS011;68111;44.728;11.290;2023-08-31T01:24:28;2.42;;;1.02;;
78772;SDS011;68111;44.728;11.290;2023-08-31T01:26:56;6.07;;;1.25;;
78772;SDS011;68111;44.728;11.290;2023-08-31T01:29:23;1.70;;;1.13;;
78772;SDS011;68111;44.728;11.290;2023-08-31T01:31:50;4.65;;;1.25;;
78772;SDS011;68111;44.728;11.290;2023-08-31T01:34:17;4.40;;;1.15;;
78772;SDS011;68111;44.728;11.290;2023-08-31T01:36:45;4.28;;;1.15;;
78772;SDS011;68111;44.728;11.290;2023-08-31T01:41:48;2.53;;;0.98;;
78772;SDS011;68111;44.728;11.290;2023-08-31T01:44:21;2.65;;;1.30;;
78772;SDS011;68111;44.728;11.290;2023-08-31T01:46:51;2.90;;;1.10;;
78772;SDS011;68111;44.728;11.290;2023-08-31T01:49:22;2.97;;;1.10;;
78772;SDS011;68111;44.728;11.290;2023-08-31T01:51:50;2.30;;;1.00;;
78772;SDS011;68111;44.728;11.290;2023-08-31T01:54:17;1.80;;;1.00;;
78772;SDS011;68111;44.728;11.290;2023-08-31T01:56:43;3.95;;;1.23;;
78772;SDS011;68111;44.728;11.290;2023-08-31T01:59:10;1.75;;;1.00;;
78772;SDS011;68111;44.728;11.290;2023-08-31T02:01:37;2.70;;;0.95;;
78772;SDS011;68111;44.728;11.290;2023-08-31T02:04:04;2.45;;;1.02;;
78772;SDS011;68111;44.728;11.290;2023-08-31T02:06:31;2.40;;;0.93;;
78772;SDS011;68111;44.728;11.290;2023-08-31T02:08:58;4.85;;;0.90;;
78772;SDS011;68111;44.728;11.290;2023-08-31T02:11:25;1.95;;;0.80;;
78772;SDS011;68111;44.728;11.290;2023-08-31T02:13:54;2.35;;;1.00;;
78772;SDS011;68111;44.728;11.290;2023-08-31T02:16:21;2.72;;;1.10;;
78772;SDS011;68111;44.728;11.290;2023-08-31T02:18:48;4.10;;;0.90;;
78772;SDS011;68111;44.728;11.290;2023-08-31T02:21:15;2.88;;;1.02;;
78772;SDS011;68111;44.728;11.290;2023-08-31T02:23:43;2.25;;;0.98;;
78772;SDS011;68111;44.728;11.290;2023-08-31T02:26:10;6.57;;;1.08;;
78772;SDS011;68111;44.728;11.290;2023-08-31T02:28:38;1.50;;;0.93;;
78772;SDS011;68111;44.728;11.290;2023-08-31T02:31:23;3.80;;;0.90;;
78772;SDS011;68111;44.728;11.290;2023-08-31T02:33:50;2.83;;;0.82;;
78772;SDS011;68111;44.728;11.290;2023-08-31T02:36:17;1.00;;;0.90;;
78772;SDS011;68111;44.728;11.290;2023-08-31T02:38:44;0.80;;;0.80;;
78772;SDS011;68111;44.728;11.290;2023-08-31T02:41:12;3.60;;;1.10;;
78772;SDS011;68111;44.728;11.290;2023-08-31T02:43:39;2.45;;;1.08;;
78772;SDS011;68111;44.728;11.290;2023-08-31T02:46:08;2.10;;;0.93;;
78772;SDS011;68111;44.728;11.290;2023-08-31T02:48:35;3.38;;;1.15;;
78772;SDS011;68111;44.728;11.290;2023-08-31T02:51:02;3.00;;;1.00;;
78772;SDS011;68111;44.728;11.290;2023-08-31T02:53:30;3.78;;;1.05;;
78772;SDS011;68111;44.728;11.290;2023-08-31T02:55:56;3.15;;;1.02;;
78772;SDS011;68111;44.728;11.290;2023-08-31T02:58:24;2.58;;;1.08;;
78772;SDS011;68111;44.728;11.290;2023-08-31T03:00:51;2.28;;;1.00;;
78772;SDS011;68111;44.728;11.290;2023-08-31T03:03:19;1.75;;;1.00;;
78772;SDS011;68111;44.728;11.290;2023-08-31T03:05:46;4.53;;;1.20;;
78772;SDS011;68111;44.728;11.290;2023-08-31T03:08:13;4.22;;;1.20;;
78772;SDS011;68111;44.728;11.290;2023-08-31T03:10:41;3.53;;;1.20;;
78772;SDS011;68111;44.728;11.290;2023-08-31T03:13:08;4.03;;;1.40;;
78772;SDS011;68111;44.728;11.290;2023-08-31T03:15:36;3.05;;;1.30;;
78772;SDS011;68111;44.728;11.290;2023-08-31T03:18:03;3.28;;;1.40;;
78772;SDS011;68111;44.728;11.290;2023-08-31T03:20:30;5.85;;;1.15;;
78772;SDS011;68111;44.728;11.290;2023-08-31T03:22:58;3.53;;;1.17;;
78772;SDS011;68111;44.728;11.290;2023-08-31T03:25:26;2.33;;;1.10;;
78772;SDS011;68111;44.728;11.290;2023-08-31T03:27:54;2.17;;;1.00;;
78772;SDS011;68111;44.728;11.290;2023-08-31T03:30:21;2.80;;;1.02;;
78772;SDS011;68111;44.728;11.290;2023-08-31T03:32:48;3.47;;;1.20;;
78772;SDS011;68111;44.728;11.290;2023-08-31T03:35:15;2.05;;;1.10;;
78772;SDS011;68111;44.728;11.290;2023-08-31T03:37:42;3.63;;;0.98;;
78772;SDS011;68111;44.728;11.290;2023-08-31T03:40:08;3.30;;;1.20;;
78772;SDS011;68111;44.728;11.290;2023-08-31T03:42:35;3.90;;;1.20;;
78772;SDS011;68111;44.728;11.290;2023-08-31T03:45:04;4.20;;;1.38;;
78772;SDS011;68111;44.728;11.290;2023-08-31T03:47:32;3.03;;;1.02;;
78772;SDS011;68111;44.728;11.290;2023-08-31T03:49:59;4.65;;;1.30;;
78772;SDS011;68111;44.728;11.290;2023-08-31T03:52:26;1.73;;;1.17;;
78772;SDS011;68111;44.728;11.290;2023-08-31T03:54:52;2.15;;;1.10;;
78772;SDS011;68111;44.728;11.290;2023-08-31T03:57:21;5.70;;;2.60;;
78772;SDS011;68111;44.728;11.290;2023-08-31T03:59:49;1.70;;;1.20;;
78772;SDS011;68111;44.728;11.290;2023-08-31T04:02:16;3.90;;;1.15;;
78772;SDS011;68111;44.728;11.290;2023-08-31T04:04:43;4.22;;;1.23;;
78772;SDS011;68111;44.728;11.290;2023-08-31T04:07:10;4.93;;;1.30;;
78772;SDS011;68111;44.728;11.290;2023-08-31T04:09:36;6.93;;;1.38;;
78772;SDS011;68111;44.728;11.290;2023-08-31T04:12:03;4.85;;;1.40;;
78772;SDS011;68111;44.728;11.290;2023-08-31T04:14:30;5.70;;;1.50;;
78772;SDS011;68111;44.728;11.290;2023-08-31T04:16:58;5.35;;;1.40;;
78772;SDS011;68111;44.728;11.290;2023-08-31T04:19:24;5.07;;;1.52;;
78772;SDS011;68111;44.728;11.290;2023-08-31T04:21:51;2.70;;;1.00;;
78772;SDS011;68111;44.728;11.290;2023-08-31T04:24:18;3.55;;;1.27;;
78772;SDS011;68111;44.728;11.290;2023-08-31T04:26:44;2.03;;;1.38;;
78772;SDS011;68111;44.728;11.290;2023-08-31T04:29:11;4.95;;;1.60;;
78772;SDS011;68111;44.728;11.290;2023-08-31T04:31:38;3.15;;;1.30;;
78772;SDS011;68111;44.728;11.290;2023-08-31T04:34:05;3.17;;;1.50;;
78772;SDS011;68111;44.728;11.290;2023-08-31T04:36:33;3.38;;;1.48;;
78772;SDS011;68111;44.728;11.290;2023-08-31T04:39:00;2.97;;;1.40;;
78772;SDS011;68111;44.728;11.290;2023-08-31T04:41:27;5.13;;;1.52;;
78772;SDS011;68111;44.728;11.290;2023-08-31T04:43:54;5.22;;;1.73;;
78772;SDS011;68111;44.728;11.290;2023-08-31T04:46:21;2.70;;;1.42;;
78772;SDS011;68111;44.728;11.290;2023-08-31T04:48:48;5.03;;;1.45;;
78772;SDS011;68111;44.728;11.290;2023-08-31T04:51:33;2.60;;;1.30;;
78772;SDS011;68111;44.728;11.290;2023-08-31T04:54:01;5.65;;;1.30;;
78772;SDS011;68111;44.728;11.290;2023-08-31T04:56:30;3.53;;;1.23;;
78772;SDS011;68111;44.728;11.290;2023-08-31T04:59:01;3.65;;;1.58;;
78772;SDS011;68111;44.728;11.290;2023-08-31T05:01:29;4.85;;;1.48;;
78772;SDS011;68111;44.728;11.290;2023-08-31T05:04:14;2.83;;;1.33;;
78772;SDS011;68111;44.728;11.290;2023-08-31T05:06:41;2.53;;;1.27;;
78772;SDS011;68111;44.728;11.290;2023-08-31T05:09:08;3.25;;;1.48;;
78772;SDS011;68111;44.728;11.290;2023-08-31T05:11:36;4.55;;;1.30;;
78772;SDS011;68111;44.728;11.290;2023-08-31T05:14:03;5.97;;;1.40;;
78772;SDS011;68111;44.728;11.290;2023-08-31T05:16:30;3.78;;;1.33;;
78772;SDS011;68111;44.728;11.290;2023-08-31T05:18:57;4.10;;;1.27;;
78772;SDS011;68111;44.728;11.290;2023-08-31T05:21:24;5.63;;;1.42;;
78772;SDS011;68111;44.728;11.290;2023-08-31T05:23:51;2.97;;;1.48;;
78772;SDS011;68111;44.728;11.290;2023-08-31T05:26:17;2.97;;;1.30;;
78772;SDS011;68111;44.728;11.290;2023-08-31T05:28:44;3.20;;;1.40;;
78772;SDS011;68111;44.728;11.290;2023-08-31T05:31:11;3.00;;;1.27;;
78772;SDS011;68111;44.728;11.290;2023-08-31T05:33:38;3.38;;;1.40;;
78772;SDS011;68111;44.728;11.290;2023-08-31T05:36:04;3.65;;;1.30;;
78772;SDS011;68111;44.728;11.290;2023-08-31T05:38:32;3.30;;;1.30;;
78772;SDS011;68111;44.728;11.290;2023-08-31T05:41:08;4.80;;;1.70;;
78772;SDS011;68111;44.728;11.290;2023-08-31T05:43:36;4.38;;;1.63;;
78772;SDS011;68111;44.728;11.290;2023-08-31T05:46:07;6.68;;;1.50;;
78772;SDS011;68111;44.728;11.290;2023-08-31T05:48:36;4.30;;;1.73;;
78772;SDS011;68111;44.728;11.290;2023-08-31T05:51:03;4.85;;;1.98;;
78772;SDS011;68111;44.728;11.290;2023-08-31T05:53:30;7.53;;;2.63;;
78772;SDS011;68111;44.728;11.290;2023-08-31T05:55:58;7.97;;;2.42;;
78772;SDS011;68111;44.728;11.290;2023-08-31T05:58:32;5.40;;;2.13;;
78772;SDS011;68111;44.728;11.290;2023-08-31T06:01:00;5.07;;;2.03;;
78772;SDS011;68111;44.728;11.290;2023-08-31T06:03:27;3.17;;;1.70;;
78772;SDS011;68111;44.728;11.290;2023-08-31T06:05:55;4.55;;;1.88;;
78772;SDS011;68111;44.728;11.290;2023-08-31T06:08:23;5.30;;;2.00;;
78772;SDS011;68111;44.728;11.290;2023-08-31T06:10:50;4.82;;;2.10;;
78772;SDS011;68111;44.728;11.290;2023-08-31T06:13:18;6.45;;;2.30;;
78772;SDS011;68111;44.728;11.290;2023-08-31T06:15:44;4.68;;;1.70;;
78772;SDS011;68111;44.728;11.290;2023-08-31T06:18:30;5.88;;;1.73;;
78772;SDS011;68111;44.728;11.290;2023-08-31T06:20:57;2.85;;;1.70;;
78772;SDS011;68111;44.728;11.290;2023-08-31T06:23:24;7.78;;;2.00;;
78772;SDS011;68111;44.728;11.290;2023-08-31T06:25:51;5.05;;;2.10;;
78772;SDS011;68111;44.728;11.290;2023-08-31T06:28:18;4.72;;;1.75;;
78772;SDS011;68111;44.728;11.290;2023-08-31T06:30:45;8.88;;;2.20;;
78772;SDS011;68111;44.728;11.290;2023-08-31T06:33:15;5.80;;;2.03;;
78772;SDS011;68111;44.728;11.290;2023-08-31T06:35:42;7.43;;;1.95;;
78772;SDS011;68111;44.728;11.290;2023-08-31T06:38:09;6.20;;;2.00;;
78772;SDS011;68111;44.728;11.290;2023-08-31T06:40:35;4.55;;;2.22;;
78772;SDS011;68111;44.728;11.290;2023-08-31T06:43:02;11.75;;;5.18;;
78772;SDS011;68111;44.728;11.290;2023-08-31T06:45:29;11.55;;;3.00;;
78772;SDS011;68111;44.728;11.290;2023-08-31T06:47:56;5.90;;;2.25;;
78772;SDS011;68111;44.728;11.290;2023-08-31T06:50:23;5.85;;;2.22;;
78772;SDS011;68111;44.728;11.290;2023-08-31T06:52:50;8.88;;;2.40;;
78772;SDS011;68111;44.728;11.290;2023-08-31T06:55:17;6.95;;;3.80;;
78772;SDS011;68111;44.728;11.290;2023-08-31T06:57:43;8.50;;;3.50;;
78772;SDS011;68111;44.728;11.290;2023-08-31T07:00:11;9.10;;;2.65;;
78772;SDS011;68111;44.728;11.290;2023-08-31T07:02:41;8.98;;;3.00;;
78772;SDS011;68111;44.728;11.290;2023-08-31T07:05:09;8.18;;;2.90;;
78772;SDS011;68111;44.728;11.290;2023-08-31T07:07:36;5.47;;;2.90;;
78772;SDS011;68111;44.728;11.290;2023-08-31T07:10:03;10.25;;;4.00;;
78772;SDS011;68111;44.728;11.290;2023-08-31T07:12:32;5.90;;;3.25;;
78772;SDS011;68111;44.728;11.290;2023-08-31T07:14:58;7.40;;;3.10;;
78772;SDS011;68111;44.728;11.290;2023-08-31T07:17:25;7.50;;;3.03;;
78772;SDS011;68111;44.728;11.290;2023-08-31T07:19:52;7.85;;;3.67;;
78772;SDS011;68111;44.728;11.290;2023-08-31T07:22:19;10.25;;;4.05;;
78772;SDS011;68111;44.728;11.290;2023-08-31T07:24:45;10.05;;;3.90;;
78772;SDS011;68111;44.728;11.290;2023-08-31T07:27:12;8.70;;;3.55;;
78772;SDS011;68111;44.728;11.290;2023-08-31T07:29:39;8.65;;;4.25;;
78772;SDS011;68111;44.728;11.290;2023-08-31T07:32:06;7.40;;;4.72;;
78772;SDS011;68111;44.728;11.290;2023-08-31T07:34:33;8.25;;;4.13;;
78772;SDS011;68111;44.728;11.290;2023-08-31T07:37:00;9.23;;;4.00;;
78772;SDS011;68111;44.728;11.290;2023-08-31T07:39:27;9.65;;;4.47;;
78772;SDS011;68111;44.728;11.290;2023-08-31T07:41:54;6.75;;;4.55;;
78772;SDS011;68111;44.728;11.290;2023-08-31T07:44:21;7.75;;;4.50;;
78772;SDS011;68111;44.728;11.290;2023-08-31T07:46:48;12.77;;;4.53;;
78772;SDS011;68111;44.728;11.290;2023-08-31T07:49:15;8.32;;;4.22;;
78772;SDS011;68111;44.728;11.290;2023-08-31T07:51:42;12.68;;;5.07;;
78772;SDS011;68111;44.728;11.290;2023-08-31T07:54:08;7.13;;;4.65;;
78772;SDS011;68111;44.728;11.290;2023-08-31T07:56:36;8.98;;;5.50;;
78772;SDS011;68111;44.728;11.290;2023-08-31T07:59:03;9.68;;;4.60;;
78772;SDS011;68111;44.728;11.290;2023-08-31T08:01:30;9.60;;;4.72;;
78772;SDS011;68111;44.728;11.290;2023-08-31T08:03:57;8.23;;;4.00;;
78772;SDS011;68111;44.728;11.290;2023-08-31T08:06:24;8.73;;;4.68;;
78772;SDS011;68111;44.728;11.290;2023-08-31T08:08:52;8.02;;;4.35;;
78772;SDS011;68111;44.728;11.290;2023-08-31T08:11:19;9.95;;;4.68;;
78772;SDS011;68111;44.728;11.290;2023-08-31T08:13:45;11.38;;;6.07;;
78772;SDS011;68111;44.728;11.290;2023-08-31T08:16:12;8.98;;;4.78;;
78772;SDS011;68111;44.728;11.290;2023-08-31T08:18:39;8.05;;;4.57;;
78772;SDS011;68111;44.728;11.290;2023-08-31T08:21:07;7.70;;;4.00;;
78772;SDS011;68111;44.728;11.290;2023-08-31T08:23:33;7.90;;;4.57;;
78772;SDS011;68111;44.728;11.290;2023-08-31T08:26:00;7.32;;;4.28;;
78772;SDS011;68111;44.728;11.290;2023-08-31T08:28:27;7.82;;;4.88;;
78772;SDS011;68111;44.728;11.290;2023-08-31T08:30:54;8.98;;;5.43;;
78772;SDS011;68111;44.728;11.290;2023-08-31T08:33:21;10.52;;;5.15;;
78772;SDS011;68111;44.728;11.290;2023-08-31T08:35:48;7.25;;;4.68;;
78772;SDS011;68111;44.728;11.290;2023-08-31T08:38:15;6.38;;;4.45;;
78772;SDS011;68111;44.728;11.290;2023-08-31T08:40:42;7.40;;;4.50;;
78772;SDS011;68111;44.728;11.290;2023-08-31T08:43:09;9.75;;;4.15;;
78772;SDS011;68111;44.728;11.290;2023-08-31T08:45:38;9.70;;;5.60;;
78772;SDS011;68111;44.728;11.290;2023-08-31T08:48:08;7.97;;;4.90;;
78772;SDS011;68111;44.728;11.290;2023-08-31T08:50:36;6.78;;;4.53;;
78772;SDS011;68111;44.728;11.290;2023-08-31T08:53:04;6.93;;;4.90;;
78772;SDS011;68111;44.728;11.290;2023-08-31T08:55:31;9.15;;;4.80;;
78772;SDS011;68111;44.728;11.290;2023-08-31T08:57:58;12.88;;;6.60;;
78772;SDS011;68111;44.728;11.290;2023-08-31T09:00:30;11.48;;;6.43;;
78772;SDS011;68111;44.728;11.290;2023-08-31T09:02:58;8.05;;;4.80;;
78772;SDS011;68111;44.728;11.290;2023-08-31T09:05:33;9.52;;;4.40;;
78772;SDS011;68111;44.728;11.290;2023-08-31T09:08:04;7.63;;;4.32;;
78772;SDS011;68111;44.728;11.290;2023-08-31T09:10:37;7.70;;;4.43;;
78772;SDS011;68111;44.728;11.290;2023-08-31T09:13:09;7.07;;;5.38;;
78772;SDS011;68111;44.728;11.290;2023-08-31T09:15:41;7.47;;;4.50;;
78772;SDS011;68111;44.728;11.290;2023-08-31T09:20:48;5.28;;;4.13;;
78772;SDS011;68111;44.728;11.290;2023-08-31T09:23:15;8.25;;;4.65;;
78772;SDS011;68111;44.728;11.290;2023-08-31T09:28:15;7.72;;;5.57;;
78772;SDS011;68111;44.728;11.290;2023-08-31T09:30:43;10.43;;;4.95;;
78772;SDS011;68111;44.728;11.290;2023-08-31T09:33:16;11.00;;;4.60;;
78772;SDS011;68111;44.728;11.290;2023-08-31T09:35:51;9.32;;;4.90;;
78772;SDS011;68111;44.728;11.290;2023-08-31T09:38:18;7.82;;;5.03;;
78772;SDS011;68111;44.728;11.290;2023-08-31T09:40:45;9.35;;;5.05;;
78772;SDS011;68111;44.728;11.290;2023-08-31T09:43:19;7.38;;;3.90;;
78772;SDS011;68111;44.728;11.290;2023-08-31T09:45:50;7.40;;;4.43;;
78772;SDS011;68111;44.728;11.290;2023-08-31T09:48:19;9.27;;;4.53;;
78772;SDS011;68111;44.728;11.290;2023-08-31T09:50:46;7.93;;;4.70;;
78772;SDS011;68111;44.728;11.290;2023-08-31T09:53:33;9.35;;;4.47;;
78772;SDS011;68111;44.728;11.290;2023-08-31T09:56:04;9.85;;;5.00;;
78772;SDS011;68111;44.728;11.290;2023-08-31T09:58:33;7.15;;;4.13;;
78772;SDS011;68111;44.728;11.290;2023-08-31T10:01:00;7.20;;;4.15;;
78772;SDS011;68111;44.728;11.290;2023-08-31T10:03:29;6.63;;;4.60;;
78772;SDS011;68111;44.728;11.290;2023-08-31T10:05:57;8.32;;;4.45;;
78772;SDS011;68111;44.728;11.290;2023-08-31T10:08:25;6.78;;;4.53;;
78772;SDS011;68111;44.728;11.290;2023-08-31T10:11:00;7.63;;;4.05;;
78772;SDS011;68111;44.728;11.290;2023-08-31T10:13:31;8.57;;;4.90;;
78772;SDS011;68111;44.728;11.290;2023-08-31T10:16:02;6.90;;;4.28;;
78772;SDS011;68111;44.728;11.290;2023-08-31T10:18:31;8.17;;;5.17;;
78772;SDS011;68111;44.728;11.290;2023-08-31T10:21:01;7.80;;;3.80;;
78772;SDS011;68111;44.728;11.290;2023-08-31T10:23:29;7.78;;;4.20;;
78772;SDS011;68111;44.728;11.290;2023-08-31T10:25:59;8.65;;;3.60;;
78772;SDS011;68111;44.728;11.290;2023-08-31T10:28:27;4.97;;;3.47;;
78772;SDS011;68111;44.728;11.290;2023-08-31T10:31:02;5.45;;;3.47;;
78772;SDS011;68111;44.728;11.290;2023-08-31T10:33:46;7.95;;;3.72;;
78772;SDS011;68111;44.728;11.290;2023-08-31T10:38:59;4.82;;;3.33;;
78772;SDS011;68111;44.728;11.290;2023-08-31T10:41:36;6.10;;;3.10;;
78772;SDS011;68111;44.728;11.290;2023-08-31T10:44:27;7.63;;;3.58;;
78772;SDS011;68111;44.728;11.290;2023-08-31T10:46:59;7.43;;;3.70;;
78772;SDS011;68111;44.728;11.290;2023-08-31T10:49:29;6.55;;;3.22;;
78772;SDS011;68111;44.728;11.290;2023-08-31T10:52:15;3.63;;;2.53;;
78772;SDS011;68111;44.728;11.290;2023-08-31T10:55:04;6.38;;;2.67;;
78772;SDS011;68111;44.728;11.290;2023-08-31T10:57:32;7.90;;;3.08;;
78772;SDS011;68111;44.728;11.290;2023-08-31T11:00:02;6.28;;;3.00;;
78772;SDS011;68111;44.728;11.290;2023-08-31T11:07:47;7.22;;;3.00;;
78772;SDS011;68111;44.728;11.290;2023-08-31T11:10:19;5.72;;;2.40;;
78772;SDS011;68111;44.728;11.290;2023-08-31T11:12:52;5.90;;;2.65;;
78772;SDS011;68111;44.728;11.290;2023-08-31T11:15:21;8.00;;;2.47;;
78772;SDS011;68111;44.728;11.290;2023-08-31T11:17:49;4.35;;;2.38;;
78772;SDS011;68111;44.728;11.290;2023-08-31T11:20:17;4.80;;;2.17;;
78772;SDS011;68111;44.728;11.290;2023-08-31T11:22:46;3.42;;;1.90;;
78772;SDS011;68111;44.728;11.290;2023-08-31T11:25:16;5.18;;;2.30;;
78772;SDS011;68111;44.728;11.290;2023-08-31T11:30:21;5.32;;;2.22;;
78772;SDS011;68111;44.728;11.290;2023-08-31T11:32:48;4.82;;;1.90;;
78772;SDS011;68111;44.728;11.290;2023-08-31T11:35:21;4.53;;;2.43;;
78772;SDS011;68111;44.728;11.290;2023-08-31T11:37:50;4.75;;;2.80;;
78772;SDS011;68111;44.728;11.290;2023-08-31T11:40:18;5.88;;;2.00;;
78772;SDS011;68111;44.728;11.290;2023-08-31T11:42:46;4.47;;;2.30;;
78772;SDS011;68111;44.728;11.290;2023-08-31T11:45:15;5.30;;;1.90;;
78772;SDS011;68111;44.728;11.290;2023-08-31T11:47:42;4.10;;;1.90;;
78772;SDS011;68111;44.728;11.290;2023-08-31T11:50:10;5.07;;;1.70;;
78772;SDS011;68111;44.728;11.290;2023-08-31T11:52:38;4.30;;;2.08;;
78772;SDS011;68111;44.728;11.290;2023-08-31T11:55:15;8.65;;;2.30;;
78772;SDS011;68111;44.728;11.290;2023-08-31T11:57:54;4.00;;;1.88;;
78772;SDS011;68111;44.728;11.290;2023-08-31T12:00:22;5.93;;;2.72;;
78772;SDS011;68111;44.728;11.290;2023-08-31T12:02:56;7.10;;;2.03;;
78772;SDS011;68111;44.728;11.290;2023-08-31T12:05:25;3.35;;;2.03;;
78772;SDS011;68111;44.728;11.290;2023-08-31T12:07:53;5.80;;;2.03;;
78772;SDS011;68111;44.728;11.290;2023-08-31T12:10:23;4.65;;;2.10;;
78772;SDS011;68111;44.728;11.290;2023-08-31T12:12:51;6.32;;;2.03;;
78772;SDS011;68111;44.728;11.290;2023-08-31T12:15:19;4.00;;;1.52;;
78772;SDS011;68111;44.728;11.290;2023-08-31T12:17:50;7.18;;;1.80;;
78772;SDS011;68111;44.728;11.290;2023-08-31T12:20:25;4.70;;;1.50;;
78772;SDS011;68111;44.728;11.290;2023-08-31T12:22:55;4.05;;;1.90;;
78772;SDS011;68111;44.728;11.290;2023-08-31T12:25:22;5.78;;;2.03;;
78772;SDS011;68111;44.728;11.290;2023-08-31T12:27:52;4.13;;;1.55;;
78772;SDS011;68111;44.728;11.290;2023-08-31T12:30:19;5.25;;;1.48;;
78772;SDS011;68111;44.728;11.290;2023-08-31T12:32:47;6.18;;;1.90;;
78772;SDS011;68111;44.728;11.290;2023-08-31T12:35:14;4.05;;;1.50;;
78772;SDS011;68111;44.728;11.290;2023-08-31T12:37:41;5.55;;;1.55;;
78772;SDS011;68111;44.728;11.290;2023-08-31T12:40:07;3.80;;;1.40;;
78772;SDS011;68111;44.728;11.290;2023-08-31T12:42:36;5.38;;;1.40;;
78772;SDS011;68111;44.728;11.290;2023-08-31T12:45:03;19.35;;;2.50;;
78772;SDS011;68111;44.728;11.290;2023-08-31T12:47:32;8.63;;;1.65;;
78772;SDS011;68111;44.728;11.290;2023-08-31T12:50:00;5.53;;;2.58;;
78772;SDS011;68111;44.728;11.290;2023-08-31T12:52:29;4.25;;;1.30;;
78772;SDS011;68111;44.728;11.290;2023-08-31T12:54:56;4.95;;;1.70;;
78772;SDS011;68111;44.728;11.290;2023-08-31T12:57:23;5.28;;;1.65;;
78772;SDS011;68111;44.728;11.290;2023-08-31T12:59:49;4.78;;;1.40;;
78772;SDS011;68111;44.728;11.290;2023-08-31T13:02:16;5.80;;;1.60;;
78772;SDS011;68111;44.728;11.290;2023-08-31T13:04:43;5.55;;;1.50;;
78772;SDS011;68111;44.728;11.290;2023-08-31T13:07:10;4.55;;;1.60;;
78772;SDS011;68111;44.728;11.290;2023-08-31T13:09:37;6.20;;;1.75;;
78772;SDS011;68111;44.728;11.290;2023-08-31T13:12:03;4.25;;;1.35;;
78772;SDS011;68111;44.728;11.290;2023-08-31T13:14:31;5.57;;;1.80;;
78772;SDS011;68111;44.728;11.290;2023-08-31T13:16:57;3.97;;;1.52;;
78772;SDS011;68111;44.728;11.290;2023-08-31T13:19:25;10.68;;;1.80;;
78772;SDS011;68111;44.728;11.290;2023-08-31T13:21:55;4.40;;;1.40;;
78772;SDS011;68111;44.728;11.290;2023-08-31T13:24:22;5.68;;;1.27;;
78772;SDS011;68111;44.728;11.290;2023-08-31T13:26:49;3.13;;;1.50;;
78772;SDS011;68111;44.728;11.290;2023-08-31T13:29:15;4.00;;;1.60;;
78772;SDS011;68111;44.728;11.290;2023-08-31T13:31:43;5.93;;;3.53;;
78772;SDS011;68111;44.728;11.290;2023-08-31T13:34:10;3.55;;;1.20;;
78772;SDS011;68111;44.728;11.290;2023-08-31T13:36:37;5.43;;;1.52;;
78772;SDS011;68111;44.728;11.290;2023-08-31T13:39:04;5.38;;;1.77;;
78772;SDS011;68111;44.728;11.290;2023-08-31T13:41:31;5.82;;;1.50;;
78772;SDS011;68111;44.728;11.290;2023-08-31T13:43:57;3.92;;;1.30;;
78772;SDS011;68111;44.728;11.290;2023-08-31T13:46:24;6.85;;;1.65;;
78772;SDS011;68111;44.728;11.290;2023-08-31T13:48:51;5.63;;;1.40;;
78772;SDS011;68111;44.728;11.290;2023-08-31T13:51:18;4.60;;;1.40;;
78772;SDS011;68111;44.728;11.290;2023-08-31T13:53:45;4.90;;;1.38;;
78772;SDS011;68111;44.728;11.290;2023-08-31T13:56:12;4.22;;;1.30;;
78772;SDS011;68111;44.728;11.290;2023-08-31T13:58:39;4.30;;;1.35;;
78772;SDS011;68111;44.728;11.290;2023-08-31T14:01:07;5.13;;;1.38;;
78772;SDS011;68111;44.728;11.290;2023-08-31T14:03:34;6.25;;;1.50;;
78772;SDS011;68111;44.728;11.290;2023-08-31T14:06:01;2.22;;;1.38;;
78772;SDS011;68111;44.728;11.290;2023-08-31T14:08:29;4.65;;;1.48;;
78772;SDS011;68111;44.728;11.290;2023-08-31T14:10:56;5.68;;;1.50;;
78772;SDS011;68111;44.728;11.290;2023-08-31T14:13:23;4.82;;;1.85;;
78772;SDS011;68111;44.728;11.290;2023-08-31T14:15:50;5.00;;;1.70;;
78772;SDS011;68111;44.728;11.290;2023-08-31T14:18:17;7.05;;;1.80;;
78772;SDS011;68111;44.728;11.290;2023-08-31T14:20:44;5.20;;;1.88;;
78772;SDS011;68111;44.728;11.290;2023-08-31T14:23:11;8.50;;;2.05;;
78772;SDS011;68111;44.728;11.290;2023-08-31T14:25:38;6.97;;;1.88;;
78772;SDS011;68111;44.728;11.290;2023-08-31T14:28:04;9.43;;;2.65;;
78772;SDS011;68111;44.728;11.290;2023-08-31T14:30:32;4.32;;;1.63;;
78772;SDS011;68111;44.728;11.290;2023-08-31T14:32:58;7.50;;;1.90;;
78772;SDS011;68111;44.728;11.290;2023-08-31T14:35:25;4.65;;;1.70;;
78772;SDS011;68111;44.728;11.290;2023-08-31T14:37:54;6.00;;;1.63;;
78772;SDS011;68111;44.728;11.290;2023-08-31T14:40:21;6.82;;;1.50;;
78772;SDS011;68111;44.728;11.290;2023-08-31T14:42:48;7.20;;;1.80;;
78772;SDS011;68111;44.728;11.290;2023-08-31T14:45:15;8.55;;;3.53;;
78772;SDS011;68111;44.728;11.290;2023-08-31T14:47:41;4.97;;;2.00;;
78772;SDS011;68111;44.728;11.290;2023-08-31T14:50:08;4.70;;;1.70;;
78772;SDS011;68111;44.728;11.290;2023-08-31T14:52:35;6.38;;;1.60;;
78772;SDS011;68111;44.728;11.290;2023-08-31T14:55:02;2.95;;;1.48;;
78772;SDS011;68111;44.728;11.290;2023-08-31T14:57:30;3.28;;;1.50;;
78772;SDS011;68111;44.728;11.290;2023-08-31T14:59:57;3.28;;;1.42;;
78772;SDS011;68111;44.728;11.290;2023-08-31T15:02:29;3.47;;;1.50;;
78772;SDS011;68111;44.728;11.290;2023-08-31T15:04:56;5.25;;;1.70;;